Orbital elements of COSMOS 1700
| Launched | 24 October 1985 |
| Flight ended | – |
| Launch site | Tyuratam Missile and Space Center, Kazakhstan (Also known as Baikonur Cosmodrome) |
| Owner | Commonwealth of Independent States (former USSR) |
| NORAD ID | 16199 |
| Date fetched |
Epoch osculation |
Inc. [°] |
Ecc. | RA asc node [hr] |
Arg Peri. [°] |
Mean anom [°] |
Mean motion [rev/day] |
Abs. mag |
| Date fetched |
Epoch osculation |
Inc. [°] |
Ecc. | RA asc node [hr] |
Arg Peri. [°] |
Mean anom [°] |
Mean motion [rev/day] |
Abs. mag |
| 2026 May 01 17:56 | 2026 Apr 30 13:45:19 | 9.7925 | 0.00036 | 21.2777 | 242.0110 | 299.0897 | 1.00317 | – |
| 2026 Apr 30 17:56 | 2026 Apr 30 13:45:19 | 9.7925 | 0.00036 | 21.2777 | 242.0110 | 299.0897 | 1.00317 | – |
| 2026 Apr 29 17:57 | 2026 Apr 24 02:09:38 | 9.8033 | 0.00035 | 21.2802 | 243.1246 | 299.0897 | 1.00317 | – |
| 2026 Apr 28 17:56 | 2026 Apr 24 02:09:38 | 9.8033 | 0.00035 | 21.2802 | 243.1246 | 299.0897 | 1.00317 | – |
| 2026 Apr 27 17:58 | 2026 Apr 24 02:09:38 | 9.8033 | 0.00035 | 21.2802 | 243.1246 | 299.0897 | 1.00317 | – |
| 2026 Apr 26 17:58 | 2026 Apr 24 02:09:38 | 9.8033 | 0.00035 | 21.2802 | 243.1246 | 299.0897 | 1.00317 | – |
| 2026 Apr 25 17:58 | 2026 Apr 24 02:09:38 | 9.8033 | 0.00035 | 21.2802 | 243.1246 | 299.0897 | 1.00317 | – |
| 2026 Apr 24 17:59 | 2026 Apr 24 02:09:38 | 9.8033 | 0.00035 | 21.2802 | 243.1246 | 299.0897 | 1.00317 | – |
| 2026 Apr 23 17:57 | 2026 Apr 19 03:56:55 | 9.8113 | 0.00035 | 21.2822 | 245.4392 | 299.0897 | 1.00317 | – |
| 2026 Apr 22 17:57 | 2026 Apr 19 03:56:55 | 9.8113 | 0.00035 | 21.2822 | 245.4392 | 299.0897 | 1.00317 | – |
| 2026 Apr 21 17:57 | 2026 Apr 19 03:56:55 | 9.8113 | 0.00035 | 21.2822 | 245.4392 | 299.0897 | 1.00317 | – |
| 2026 Apr 20 17:57 | 2026 Apr 19 03:56:55 | 9.8113 | 0.00035 | 21.2822 | 245.4392 | 299.0897 | 1.00317 | – |
| 2026 Apr 19 17:58 | 2026 Apr 19 03:56:55 | 9.8113 | 0.00035 | 21.2822 | 245.4392 | 299.0897 | 1.00317 | – |
| 2026 Apr 18 17:56 | 2026 Apr 13 04:12:00 | 9.8210 | 0.00035 | 21.2846 | 249.3550 | 299.0897 | 1.00317 | – |
| 2026 Apr 16 17:57 | 2026 Apr 13 04:12:00 | 9.8210 | 0.00035 | 21.2846 | 249.3550 | 299.0897 | 1.00317 | – |
| 2026 Apr 14 17:57 | 2026 Apr 13 04:12:00 | 9.8210 | 0.00035 | 21.2846 | 249.3550 | 299.0897 | 1.00317 | – |
| 2026 Apr 13 17:57 | 2026 Apr 13 04:12:00 | 9.8210 | 0.00035 | 21.2846 | 249.3550 | 299.0897 | 1.00317 | – |
| 2026 Apr 12 17:57 | 2026 Apr 08 04:24:25 | 9.8294 | 0.00036 | 21.2866 | 251.3726 | 299.0897 | 1.00317 | – |
| 2026 Apr 11 17:57 | 2026 Apr 08 04:24:25 | 9.8294 | 0.00036 | 21.2866 | 251.3726 | 299.0897 | 1.00317 | – |
| 2026 Apr 10 17:58 | 2026 Apr 08 04:24:25 | 9.8294 | 0.00036 | 21.2866 | 251.3726 | 299.0897 | 1.00317 | – |
| 2026 Apr 09 18:01 | 2026 Apr 08 04:24:25 | 9.8294 | 0.00036 | 21.2866 | 251.3726 | 299.0897 | 1.00317 | – |
| 2026 Apr 08 17:57 | 2026 Apr 08 04:24:25 | 9.8294 | 0.00036 | 21.2866 | 251.3726 | 299.0897 | 1.00317 | – |
| 2026 Apr 07 17:57 | 2026 Apr 02 04:38:55 | 9.8394 | 0.00037 | 21.2889 | 252.3050 | 299.0897 | 1.00317 | – |
| 2026 Apr 06 17:57 | 2026 Apr 02 04:38:55 | 9.8394 | 0.00037 | 21.2889 | 252.3050 | 299.0897 | 1.00317 | – |
| 2026 Apr 05 17:56 | 2026 Apr 02 04:38:55 | 9.8394 | 0.00037 | 21.2889 | 252.3050 | 299.0897 | 1.00317 | – |
| 2026 Apr 04 17:57 | 2026 Apr 02 04:38:55 | 9.8394 | 0.00037 | 21.2889 | 252.3050 | 299.0897 | 1.00317 | – |